sensor_id;sensor_type;location;lat;lon;timestamp;temperature;humidity
74809;DHT22;63338;39.544;2.596;2022-11-03T00:02:11;20.90;85.40
74809;DHT22;63338;39.544;2.596;2022-11-03T00:05:03;20.90;86.70
74809;DHT22;63338;39.544;2.596;2022-11-03T00:08:13;20.90;85.70
74809;DHT22;63338;39.544;2.596;2022-11-03T00:30:58;20.70;87.30
74809;DHT22;63338;39.544;2.596;2022-11-03T00:34:17;20.70;87.40
74809;DHT22;63338;39.544;2.596;2022-11-03T00:36:43;20.60;87.60
74809;DHT22;63338;39.544;2.596;2022-11-03T00:39:11;20.70;87.70
74809;DHT22;63338;39.544;2.596;2022-11-03T00:41:38;20.60;87.70
74809;DHT22;63338;39.544;2.596;2022-11-03T00:44:04;20.60;87.70
74809;DHT22;63338;39.544;2.596;2022-11-03T00:46:31;20.60;87.80
74809;DHT22;63338;39.544;2.596;2022-11-03T00:49:03;20.60;87.80
74809;DHT22;63338;39.544;2.596;2022-11-03T00:51:33;20.50;87.80
74809;DHT22;63338;39.544;2.596;2022-11-03T00:54:06;20.40;87.90
74809;DHT22;63338;39.544;2.596;2022-11-03T00:56:40;20.60;88.30
74809;DHT22;63338;39.544;2.596;2022-11-03T00:59:08;20.60;88.00
74809;DHT22;63338;39.544;2.596;2022-11-03T01:01:39;20.60;88.00
74809;DHT22;63338;39.544;2.596;2022-11-03T01:04:06;20.60;88.00
74809;DHT22;63338;39.544;2.596;2022-11-03T01:06:53;20.60;88.00
74809;DHT22;63338;39.544;2.596;2022-11-03T01:12:03;20.50;88.20
74809;DHT22;63338;39.544;2.596;2022-11-03T01:14:42;20.60;88.30
74809;DHT22;63338;39.544;2.596;2022-11-03T01:17:18;20.50;88.30
74809;DHT22;63338;39.544;2.596;2022-11-03T01:19:44;20.50;88.10
74809;DHT22;63338;39.544;2.596;2022-11-03T01:22:11;20.40;88.20
74809;DHT22;63338;39.544;2.596;2022-11-03T01:24:39;20.40;88.40
74809;DHT22;63338;39.544;2.596;2022-11-03T01:27:07;20.40;88.20
74809;DHT22;63338;39.544;2.596;2022-11-03T01:29:33;20.40;88.40
74809;DHT22;63338;39.544;2.596;2022-11-03T01:32:00;20.40;88.60
74809;DHT22;63338;39.544;2.596;2022-11-03T01:34:26;20.30;88.90
74809;DHT22;63338;39.544;2.596;2022-11-03T01:36:52;20.30;88.70
74809;DHT22;63338;39.544;2.596;2022-11-03T01:39:18;20.30;88.70
74809;DHT22;63338;39.544;2.596;2022-11-03T01:41:47;20.30;88.60
74809;DHT22;63338;39.544;2.596;2022-11-03T01:44:23;20.30;88.50
74809;DHT22;63338;39.544;2.596;2022-11-03T01:46:57;20.30;88.70
74809;DHT22;63338;39.544;2.596;2022-11-03T01:52:10;20.40;88.90
74809;DHT22;63338;39.544;2.596;2022-11-03T01:54:38;20.30;88.70
74809;DHT22;63338;39.544;2.596;2022-11-03T01:57:13;20.30;89.00
74809;DHT22;63338;39.544;2.596;2022-11-03T01:59:41;20.20;88.60
74809;DHT22;63338;39.544;2.596;2022-11-03T02:02:08;20.20;88.80
74809;DHT22;63338;39.544;2.596;2022-11-03T02:04:34;20.30;89.20
74809;DHT22;63338;39.544;2.596;2022-11-03T02:07:14;20.20;88.90
74809;DHT22;63338;39.544;2.596;2022-11-03T02:09:41;20.30;88.80
74809;DHT22;63338;39.544;2.596;2022-11-03T02:12:08;20.30;88.90
74809;DHT22;63338;39.544;2.596;2022-11-03T02:14:38;20.20;89.00
74809;DHT22;63338;39.544;2.596;2022-11-03T02:17:08;20.20;88.90
74809;DHT22;63338;39.544;2.596;2022-11-03T02:25:07;20.10;89.40
74809;DHT22;63338;39.544;2.596;2022-11-03T02:27:36;20.00;89.30
74809;DHT22;63338;39.544;2.596;2022-11-03T02:30:03;20.00;89.50
74809;DHT22;63338;39.544;2.596;2022-11-03T02:32:41;20.00;89.50
74809;DHT22;63338;39.544;2.596;2022-11-03T02:35:30;20.00;89.60
74809;DHT22;63338;39.544;2.596;2022-11-03T02:37:59;19.90;89.60
74809;DHT22;63338;39.544;2.596;2022-11-03T02:40:32;19.90;89.40
74809;DHT22;63338;39.544;2.596;2022-11-03T02:43:00;19.90;89.60
74809;DHT22;63338;39.544;2.596;2022-11-03T02:45:27;19.90;90.00
74809;DHT22;63338;39.544;2.596;2022-11-03T02:47:58;19.90;90.10
74809;DHT22;63338;39.544;2.596;2022-11-03T02:50:30;19.80;90.40
74809;DHT22;63338;39.544;2.596;2022-11-03T02:52:57;19.90;90.10
74809;DHT22;63338;39.544;2.596;2022-11-03T03:01:00;19.80;90.30
74809;DHT22;63338;39.544;2.596;2022-11-03T03:03:40;19.70;90.20
74809;DHT22;63338;39.544;2.596;2022-11-03T03:06:16;19.70;90.50
74809;DHT22;63338;39.544;2.596;2022-11-03T03:08:46;19.70;90.40
74809;DHT22;63338;39.544;2.596;2022-11-03T03:11:15;19.70;90.70
74809;DHT22;63338;39.544;2.596;2022-11-03T03:13:42;19.70;90.60
74809;DHT22;63338;39.544;2.596;2022-11-03T03:16:14;19.70;90.30
74809;DHT22;63338;39.544;2.596;2022-11-03T03:19:01;19.70;90.50
74809;DHT22;63338;39.544;2.596;2022-11-03T03:21:32;19.80;90.50
74809;DHT22;63338;39.544;2.596;2022-11-03T03:24:11;19.80;90.30
74809;DHT22;63338;39.544;2.596;2022-11-03T03:26:46;19.80;90.30
74809;DHT22;63338;39.544;2.596;2022-11-03T03:29:43;19.70;90.00
74809;DHT22;63338;39.544;2.596;2022-11-03T03:32:08;19.80;90.10
74809;DHT22;63338;39.544;2.596;2022-11-03T03:34:38;19.80;90.40
74809;DHT22;63338;39.544;2.596;2022-11-03T03:37:06;19.70;90.20
74809;DHT22;63338;39.544;2.596;2022-11-03T03:39:37;19.70;89.90
74809;DHT22;63338;39.544;2.596;2022-11-03T03:42:04;19.70;90.20
74809;DHT22;63338;39.544;2.596;2022-11-03T03:44:33;19.70;90.20
74809;DHT22;63338;39.544;2.596;2022-11-03T03:47:02;19.70;90.30
74809;DHT22;63338;39.544;2.596;2022-11-03T03:49:30;19.60;90.00
74809;DHT22;63338;39.544;2.596;2022-11-03T03:51:56;19.60;89.90
74809;DHT22;63338;39.544;2.596;2022-11-03T03:54:22;19.70;90.00
74809;DHT22;63338;39.544;2.596;2022-11-03T03:57:01;19.60;90.20
74809;DHT22;63338;39.544;2.596;2022-11-03T03:59:28;19.60;90.30
74809;DHT22;63338;39.544;2.596;2022-11-03T04:01:57;19.50;90.50
74809;DHT22;63338;39.544;2.596;2022-11-03T04:04:24;19.50;90.50
74809;DHT22;63338;39.544;2.596;2022-11-03T04:06:50;19.40;90.70
74809;DHT22;63338;39.544;2.596;2022-11-03T04:09:37;19.40;90.90
74809;DHT22;63338;39.544;2.596;2022-11-03T04:12:03;19.40;90.70
74809;DHT22;63338;39.544;2.596;2022-11-03T04:14:47;19.50;90.90
74809;DHT22;63338;39.544;2.596;2022-11-03T04:17:43;19.40;90.70
74809;DHT22;63338;39.544;2.596;2022-11-03T04:20:27;19.30;90.70
74809;DHT22;63338;39.544;2.596;2022-11-03T04:23:12;19.40;91.00
74809;DHT22;63338;39.544;2.596;2022-11-03T04:25:38;19.30;91.40
74809;DHT22;63338;39.544;2.596;2022-11-03T04:28:27;19.30;91.20
74809;DHT22;63338;39.544;2.596;2022-11-03T04:30:58;19.40;91.00
74809;DHT22;63338;39.544;2.596;2022-11-03T04:33:24;19.30;91.00
74809;DHT22;63338;39.544;2.596;2022-11-03T04:35:58;19.30;90.90
74809;DHT22;63338;39.544;2.596;2022-11-03T04:38:28;19.20;91.10
74809;DHT22;63338;39.544;2.596;2022-11-03T04:40:58;19.30;91.00
74809;DHT22;63338;39.544;2.596;2022-11-03T04:43:34;19.20;91.20
74809;DHT22;63338;39.544;2.596;2022-11-03T04:46:02;19.30;91.80
74809;DHT22;63338;39.544;2.596;2022-11-03T04:48:29;19.20;91.30
74809;DHT22;63338;39.544;2.596;2022-11-03T04:50:58;19.20;91.20
74809;DHT22;63338;39.544;2.596;2022-11-03T04:53:29;19.20;91.20
74809;DHT22;63338;39.544;2.596;2022-11-03T04:55:57;19.30;91.50
74809;DHT22;63338;39.544;2.596;2022-11-03T04:58:32;19.30;91.60
74809;DHT22;63338;39.544;2.596;2022-11-03T05:01:00;19.20;91.10
74809;DHT22;63338;39.544;2.596;2022-11-03T05:03:35;19.20;91.20
74809;DHT22;63338;39.544;2.596;2022-11-03T05:06:17;19.20;91.40
74809;DHT22;63338;39.544;2.596;2022-11-03T05:08:58;19.20;91.30
74809;DHT22;63338;39.544;2.596;2022-11-03T05:11:31;19.10;91.50
74809;DHT22;63338;39.544;2.596;2022-11-03T05:14:14;19.20;91.80
74809;DHT22;63338;39.544;2.596;2022-11-03T05:16:40;19.10;91.50
74809;DHT22;63338;39.544;2.596;2022-11-03T05:19:23;19.10;91.50
74809;DHT22;63338;39.544;2.596;2022-11-03T05:21:52;18.90;91.90
74809;DHT22;63338;39.544;2.596;2022-11-03T05:24:20;19.00;92.00
74809;DHT22;63338;39.544;2.596;2022-11-03T05:26:51;19.00;92.00
74809;DHT22;63338;39.544;2.596;2022-11-03T05:29:34;19.00;92.10
74809;DHT22;63338;39.544;2.596;2022-11-03T05:32:01;19.00;92.50
74809;DHT22;63338;39.544;2.596;2022-11-03T05:34:48;19.10;92.40
74809;DHT22;63338;39.544;2.596;2022-11-03T05:37:23;19.10;92.50
74809;DHT22;63338;39.544;2.596;2022-11-03T05:39:50;19.10;92.70
74809;DHT22;63338;39.544;2.596;2022-11-03T05:42:31;19.10;92.30
74809;DHT22;63338;39.544;2.596;2022-11-03T05:44:59;19.10;92.60
74809;DHT22;63338;39.544;2.596;2022-11-03T05:47:37;19.00;92.70
74809;DHT22;63338;39.544;2.596;2022-11-03T05:50:23;19.10;92.70
74809;DHT22;63338;39.544;2.596;2022-11-03T05:53:18;19.10;92.30
74809;DHT22;63338;39.544;2.596;2022-11-03T05:55:41;19.10;92.50
74809;DHT22;63338;39.544;2.596;2022-11-03T05:58:25;19.10;92.50
74809;DHT22;63338;39.544;2.596;2022-11-03T06:00:52;19.10;92.40
74809;DHT22;63338;39.544;2.596;2022-11-03T06:03:23;19.10;92.40
74809;DHT22;63338;39.544;2.596;2022-11-03T06:05:50;19.10;92.70
74809;DHT22;63338;39.544;2.596;2022-11-03T06:08:26;19.10;92.80
74809;DHT22;63338;39.544;2.596;2022-11-03T06:10:57;19.00;92.60
74809;DHT22;63338;39.544;2.596;2022-11-03T06:13:36;19.10;92.50
74809;DHT22;63338;39.544;2.596;2022-11-03T06:16:05;19.10;92.50
74809;DHT22;63338;39.544;2.596;2022-11-03T06:18:37;19.10;92.20
74809;DHT22;63338;39.544;2.596;2022-11-03T06:21:10;19.10;92.20
74809;DHT22;63338;39.544;2.596;2022-11-03T06:23:38;19.10;92.50
74809;DHT22;63338;39.544;2.596;2022-11-03T06:26:13;19.10;92.50
74809;DHT22;63338;39.544;2.596;2022-11-03T06:28:41;19.10;92.50
74809;DHT22;63338;39.544;2.596;2022-11-03T06:31:28;19.20;92.40
74809;DHT22;63338;39.544;2.596;2022-11-03T06:33:56;19.10;92.30
74809;DHT22;63338;39.544;2.596;2022-11-03T06:36:34;19.30;92.30
74809;DHT22;63338;39.544;2.596;2022-11-03T06:39:03;19.20;92.40
74809;DHT22;63338;39.544;2.596;2022-11-03T06:41:35;19.30;92.50
74809;DHT22;63338;39.544;2.596;2022-11-03T06:44:25;19.30;92.20
74809;DHT22;63338;39.544;2.596;2022-11-03T06:46:58;19.30;92.40
74809;DHT22;63338;39.544;2.596;2022-11-03T06:49:34;19.40;92.30
74809;DHT22;63338;39.544;2.596;2022-11-03T06:54:58;19.60;92.00
74809;DHT22;63338;39.544;2.596;2022-11-03T06:57:25;19.60;92.30
74809;DHT22;63338;39.544;2.596;2022-11-03T06:59:53;19.50;92.10
74809;DHT22;63338;39.544;2.596;2022-11-03T07:02:38;19.60;91.80
74809;DHT22;63338;39.544;2.596;2022-11-03T07:05:24;19.60;92.00
74809;DHT22;63338;39.544;2.596;2022-11-03T07:07:56;19.70;92.20
74809;DHT22;63338;39.544;2.596;2022-11-03T07:10:32;19.80;92.20
74809;DHT22;63338;39.544;2.596;2022-11-03T07:13:04;19.90;92.10
74809;DHT22;63338;39.544;2.596;2022-11-03T07:15:33;19.90;91.80
74809;DHT22;63338;39.544;2.596;2022-11-03T07:18:02;20.10;91.90
74809;DHT22;63338;39.544;2.596;2022-11-03T07:20:29;20.10;91.70
74809;DHT22;63338;39.544;2.596;2022-11-03T07:22:59;20.20;91.50
74809;DHT22;63338;39.544;2.596;2022-11-03T07:25:27;20.30;91.40
74809;DHT22;63338;39.544;2.596;2022-11-03T07:27:54;20.20;91.20
74809;DHT22;63338;39.544;2.596;2022-11-03T07:30:23;20.30;91.20
74809;DHT22;63338;39.544;2.596;2022-11-03T07:32:52;20.40;91.00
74809;DHT22;63338;39.544;2.596;2022-11-03T07:35:32;20.50;91.10
74809;DHT22;63338;39.544;2.596;2022-11-03T07:38:08;20.60;91.00
74809;DHT22;63338;39.544;2.596;2022-11-03T07:40:34;20.50;91.00
74809;DHT22;63338;39.544;2.596;2022-11-03T07:43:24;20.70;90.90
74809;DHT22;63338;39.544;2.596;2022-11-03T07:45:55;20.80;90.80
74809;DHT22;63338;39.544;2.596;2022-11-03T07:48:43;20.80;90.80
74809;DHT22;63338;39.544;2.596;2022-11-03T07:51:28;20.90;89.40
74809;DHT22;63338;39.544;2.596;2022-11-03T07:56:34;21.30;88.90
74809;DHT22;63338;39.544;2.596;2022-11-03T08:01:44;21.50;88.70
74809;DHT22;63338;39.544;2.596;2022-11-03T08:04:16;21.60;88.40
74809;DHT22;63338;39.544;2.596;2022-11-03T08:06:46;21.70;87.90
74809;DHT22;63338;39.544;2.596;2022-11-03T08:09:13;21.80;87.60
74809;DHT22;63338;39.544;2.596;2022-11-03T08:11:39;21.90;87.90
74809;DHT22;63338;39.544;2.596;2022-11-03T08:14:05;22.00;87.00
74809;DHT22;63338;39.544;2.596;2022-11-03T08:16:31;22.20;87.20
74809;DHT22;63338;39.544;2.596;2022-11-03T08:18:57;22.30;86.70
74809;DHT22;63338;39.544;2.596;2022-11-03T08:21:23;22.70;85.90
74809;DHT22;63338;39.544;2.596;2022-11-03T08:23:52;23.20;84.30
74809;DHT22;63338;39.544;2.596;2022-11-03T08:26:19;23.60;82.40
74809;DHT22;63338;39.544;2.596;2022-11-03T08:28:48;24.00;81.00
74809;DHT22;63338;39.544;2.596;2022-11-03T08:31:14;24.20;80.60
74809;DHT22;63338;39.544;2.596;2022-11-03T08:33:40;24.50;79.80
74809;DHT22;63338;39.544;2.596;2022-11-03T08:36:07;24.80;78.90
74809;DHT22;63338;39.544;2.596;2022-11-03T08:38:34;25.20;78.20
74809;DHT22;63338;39.544;2.596;2022-11-03T08:41:00;25.60;77.50
74809;DHT22;63338;39.544;2.596;2022-11-03T08:43:29;26.00;75.90
74809;DHT22;63338;39.544;2.596;2022-11-03T08:45:55;26.40;73.90
74809;DHT22;63338;39.544;2.596;2022-11-03T08:48:22;26.70;73.00
74809;DHT22;63338;39.544;2.596;2022-11-03T08:50:52;27.00;72.20
74809;DHT22;63338;39.544;2.596;2022-11-03T08:53:25;27.40;71.50
74809;DHT22;63338;39.544;2.596;2022-11-03T08:55:52;27.90;70.30
74809;DHT22;63338;39.544;2.596;2022-11-03T08:58:19;28.40;69.70
74809;DHT22;63338;39.544;2.596;2022-11-03T09:00:46;28.70;68.00
74809;DHT22;63338;39.544;2.596;2022-11-03T09:03:13;28.90;67.30
74809;DHT22;63338;39.544;2.596;2022-11-03T09:05:39;28.80;67.30
74809;DHT22;63338;39.544;2.596;2022-11-03T09:08:06;28.50;67.50
74809;DHT22;63338;39.544;2.596;2022-11-03T09:10:33;28.20;68.30
74809;DHT22;63338;39.544;2.596;2022-11-03T09:12:59;27.80;69.20
74809;DHT22;63338;39.544;2.596;2022-11-03T09:15:25;28.00;69.90
74809;DHT22;63338;39.544;2.596;2022-11-03T09:17:51;28.30;68.80
74809;DHT22;63338;39.544;2.596;2022-11-03T09:20:17;28.70;67.80
74809;DHT22;63338;39.544;2.596;2022-11-03T09:22:45;29.10;67.00
74809;DHT22;63338;39.544;2.596;2022-11-03T09:25:11;29.40;65.80
74809;DHT22;63338;39.544;2.596;2022-11-03T09:27:37;29.40;65.70
74809;DHT22;63338;39.544;2.596;2022-11-03T09:30:04;29.20;66.30
74809;DHT22;63338;39.544;2.596;2022-11-03T09:32:31;28.80;66.90
74809;DHT22;63338;39.544;2.596;2022-11-03T09:34:58;28.70;67.40
74809;DHT22;63338;39.544;2.596;2022-11-03T09:37:24;28.60;67.80
74809;DHT22;63338;39.544;2.596;2022-11-03T09:39:50;28.70;67.80
74809;DHT22;63338;39.544;2.596;2022-11-03T09:42:16;28.90;67.30
74809;DHT22;63338;39.544;2.596;2022-11-03T09:44:43;28.70;67.30
74809;DHT22;63338;39.544;2.596;2022-11-03T09:47:28;28.50;68.00
74809;DHT22;63338;39.544;2.596;2022-11-03T09:49:54;28.20;68.50
74809;DHT22;63338;39.544;2.596;2022-11-03T09:52:22;27.80;69.40
74809;DHT22;63338;39.544;2.596;2022-11-03T09:54:51;27.50;70.30
74809;DHT22;63338;39.544;2.596;2022-11-03T09:57:17;27.00;71.00
74809;DHT22;63338;39.544;2.596;2022-11-03T09:59:45;26.70;72.00
74809;DHT22;63338;39.544;2.596;2022-11-03T10:04:49;26.20;73.50
74809;DHT22;63338;39.544;2.596;2022-11-03T10:07:17;25.80;74.50
74809;DHT22;63338;39.544;2.596;2022-11-03T10:09:46;25.80;75.30
74809;DHT22;63338;39.544;2.596;2022-11-03T10:12:14;25.60;75.50
74809;DHT22;63338;39.544;2.596;2022-11-03T10:14:41;25.50;76.00
74809;DHT22;63338;39.544;2.596;2022-11-03T10:17:15;25.30;76.30
74809;DHT22;63338;39.544;2.596;2022-11-03T10:19:41;25.10;77.00
74809;DHT22;63338;39.544;2.596;2022-11-03T10:22:09;25.00;77.50
74809;DHT22;63338;39.544;2.596;2022-11-03T10:24:35;24.90;77.90
74809;DHT22;63338;39.544;2.596;2022-11-03T10:27:02;24.80;78.30
74809;DHT22;63338;39.544;2.596;2022-11-03T10:29:28;24.70;78.20
74809;DHT22;63338;39.544;2.596;2022-11-03T10:31:56;24.70;78.60
74809;DHT22;63338;39.544;2.596;2022-11-03T10:37:18;24.50;78.60
74809;DHT22;63338;39.544;2.596;2022-11-03T10:39:50;24.40;78.90
74809;DHT22;63338;39.544;2.596;2022-11-03T10:42:25;24.30;78.00
74809;DHT22;63338;39.544;2.596;2022-11-03T10:45:07;24.30;78.40
74809;DHT22;63338;39.544;2.596;2022-11-03T10:47:34;24.30;78.20
74809;DHT22;63338;39.544;2.596;2022-11-03T10:50:22;24.50;78.10
74809;DHT22;63338;39.544;2.596;2022-11-03T10:52:52;24.60;78.00
74809;DHT22;63338;39.544;2.596;2022-11-03T10:55:23;24.70;77.30
74809;DHT22;63338;39.544;2.596;2022-11-03T10:57:50;24.70;77.10
74809;DHT22;63338;39.544;2.596;2022-11-03T11:00:18;24.90;76.70
74809;DHT22;63338;39.544;2.596;2022-11-03T11:02:47;24.80;74.80
74809;DHT22;63338;39.544;2.596;2022-11-03T11:05:18;24.70;75.10
74809;DHT22;63338;39.544;2.596;2022-11-03T11:07:52;24.60;75.60
74809;DHT22;63338;39.544;2.596;2022-11-03T11:10:22;24.60;75.70
74809;DHT22;63338;39.544;2.596;2022-11-03T11:13:26;24.70;76.10
74809;DHT22;63338;39.544;2.596;2022-11-03T11:16:48;24.70;76.90
74809;DHT22;63338;39.544;2.596;2022-11-03T11:19:21;24.50;77.70
74809;DHT22;63338;39.544;2.596;2022-11-03T11:37:41;26.30;71.60
74809;DHT22;63338;39.544;2.596;2022-11-03T11:40:48;26.30;71.20
74809;DHT22;63338;39.544;2.596;2022-11-03T11:48:35;25.80;70.70
74809;DHT22;63338;39.544;2.596;2022-11-03T11:51:02;25.50;71.20
74809;DHT22;63338;39.544;2.596;2022-11-03T11:53:42;25.40;71.00
74809;DHT22;63338;39.544;2.596;2022-11-03T11:56:13;25.40;71.20
74809;DHT22;63338;39.544;2.596;2022-11-03T12:01:32;25.40;71.60
74809;DHT22;63338;39.544;2.596;2022-11-03T12:04:27;25.30;72.00
74809;DHT22;63338;39.544;2.596;2022-11-03T12:06:56;25.30;72.10
74809;DHT22;63338;39.544;2.596;2022-11-03T12:09:24;25.20;72.40
74809;DHT22;63338;39.544;2.596;2022-11-03T12:11:59;25.10;72.40
74809;DHT22;63338;39.544;2.596;2022-11-03T12:14:33;25.00;72.40
74809;DHT22;63338;39.544;2.596;2022-11-03T12:19:51;25.10;72.60
74809;DHT22;63338;39.544;2.596;2022-11-03T12:24:52;25.10;72.40
74809;DHT22;63338;39.544;2.596;2022-11-03T12:29:52;25.20;72.00
74809;DHT22;63338;39.544;2.596;2022-11-03T12:32:19;25.20;70.40
74809;DHT22;63338;39.544;2.596;2022-11-03T12:34:45;25.20;71.50
74809;DHT22;63338;39.544;2.596;2022-11-03T12:37:12;25.10;72.00
74809;DHT22;63338;39.544;2.596;2022-11-03T12:39:38;25.10;72.10
74809;DHT22;63338;39.544;2.596;2022-11-03T12:42:05;25.00;72.40
74809;DHT22;63338;39.544;2.596;2022-11-03T12:44:32;25.10;72.80
74809;DHT22;63338;39.544;2.596;2022-11-03T12:46:59;25.30;72.20
74809;DHT22;63338;39.544;2.596;2022-11-03T12:49:26;25.50;71.80
74809;DHT22;63338;39.544;2.596;2022-11-03T12:51:52;25.40;71.50
74809;DHT22;63338;39.544;2.596;2022-11-03T12:54:22;25.60;71.30
74809;DHT22;63338;39.544;2.596;2022-11-03T12:56:49;25.80;71.30
74809;DHT22;63338;39.544;2.596;2022-11-03T12:59:18;25.90;71.40
74809;DHT22;63338;39.544;2.596;2022-11-03T13:01:44;25.90;70.80
74809;DHT22;63338;39.544;2.596;2022-11-03T13:04:16;25.70;70.70
74809;DHT22;63338;39.544;2.596;2022-11-03T13:06:42;25.60;71.20
74809;DHT22;63338;39.544;2.596;2022-11-03T13:09:09;25.40;71.30
74809;DHT22;63338;39.544;2.596;2022-11-03T13:11:35;25.20;72.60
74809;DHT22;63338;39.544;2.596;2022-11-03T13:14:24;25.10;73.20
74809;DHT22;63338;39.544;2.596;2022-11-03T13:16:51;25.00;73.90
74809;DHT22;63338;39.544;2.596;2022-11-03T13:19:17;24.90;73.80
74809;DHT22;63338;39.544;2.596;2022-11-03T13:21:43;24.80;74.40
74809;DHT22;63338;39.544;2.596;2022-11-03T13:24:10;24.70;74.90
74809;DHT22;63338;39.544;2.596;2022-11-03T13:26:36;24.70;75.70
74809;DHT22;63338;39.544;2.596;2022-11-03T13:29:02;24.60;75.40
74809;DHT22;63338;39.544;2.596;2022-11-03T13:31:28;24.60;75.60
74809;DHT22;63338;39.544;2.596;2022-11-03T13:33:54;24.60;75.70
74809;DHT22;63338;39.544;2.596;2022-11-03T13:36:20;24.70;76.00
74809;DHT22;63338;39.544;2.596;2022-11-03T13:38:46;24.60;76.30
74809;DHT22;63338;39.544;2.596;2022-11-03T13:41:13;24.60;76.20
74809;DHT22;63338;39.544;2.596;2022-11-03T13:43:39;24.70;76.00
74809;DHT22;63338;39.544;2.596;2022-11-03T13:46:05;24.70;76.20
74809;DHT22;63338;39.544;2.596;2022-11-03T13:48:31;24.60;76.60
74809;DHT22;63338;39.544;2.596;2022-11-03T13:50:57;24.40;77.20
74809;DHT22;63338;39.544;2.596;2022-11-03T13:53:24;24.30;77.60
74809;DHT22;63338;39.544;2.596;2022-11-03T13:55:51;24.30;77.40
74809;DHT22;63338;39.544;2.596;2022-11-03T13:58:17;24.20;77.60
74809;DHT22;63338;39.544;2.596;2022-11-03T14:00:45;24.20;78.20
74809;DHT22;63338;39.544;2.596;2022-11-03T14:03:11;24.30;78.80
74809;DHT22;63338;39.544;2.596;2022-11-03T14:05:37;24.20;78.60
74809;DHT22;63338;39.544;2.596;2022-11-03T14:08:03;24.30;78.70
74809;DHT22;63338;39.544;2.596;2022-11-03T14:10:30;24.20;78.90
74809;DHT22;63338;39.544;2.596;2022-11-03T14:12:56;24.10;79.00
74809;DHT22;63338;39.544;2.596;2022-11-03T14:15:23;24.10;78.90
74809;DHT22;63338;39.544;2.596;2022-11-03T14:17:51;24.10;79.00
74809;DHT22;63338;39.544;2.596;2022-11-03T14:20:17;24.00;79.20
74809;DHT22;63338;39.544;2.596;2022-11-03T14:22:44;24.10;79.40
74809;DHT22;63338;39.544;2.596;2022-11-03T14:25:10;24.10;79.60
74809;DHT22;63338;39.544;2.596;2022-11-03T14:27:36;24.00;79.90
74809;DHT22;63338;39.544;2.596;2022-11-03T14:30:02;24.00;79.90
74809;DHT22;63338;39.544;2.596;2022-11-03T14:32:31;24.00;79.70
74809;DHT22;63338;39.544;2.596;2022-11-03T14:34:57;24.00;79.30
74809;DHT22;63338;39.544;2.596;2022-11-03T14:37:23;24.10;78.70
74809;DHT22;63338;39.544;2.596;2022-11-03T14:39:50;24.00;77.50
74809;DHT22;63338;39.544;2.596;2022-11-03T14:42:22;24.00;77.20
74809;DHT22;63338;39.544;2.596;2022-11-03T14:44:49;24.00;77.30
74809;DHT22;63338;39.544;2.596;2022-11-03T14:47:18;24.00;76.40
74809;DHT22;63338;39.544;2.596;2022-11-03T14:49:48;24.10;76.60
74809;DHT22;63338;39.544;2.596;2022-11-03T14:52:15;24.00;76.50
74809;DHT22;63338;39.544;2.596;2022-11-03T14:54:41;24.00;76.60
74809;DHT22;63338;39.544;2.596;2022-11-03T14:57:08;24.20;75.80
74809;DHT22;63338;39.544;2.596;2022-11-03T14:59:34;24.10;75.80
74809;DHT22;63338;39.544;2.596;2022-11-03T15:02:02;24.10;76.20
74809;DHT22;63338;39.544;2.596;2022-11-03T15:04:28;24.10;76.60
74809;DHT22;63338;39.544;2.596;2022-11-03T15:06:54;24.00;75.70
74809;DHT22;63338;39.544;2.596;2022-11-03T15:09:20;24.00;75.00
74809;DHT22;63338;39.544;2.596;2022-11-03T15:11:46;24.00;74.00
74809;DHT22;63338;39.544;2.596;2022-11-03T15:14:12;24.00;73.30
74809;DHT22;63338;39.544;2.596;2022-11-03T15:16:39;23.90;72.70
74809;DHT22;63338;39.544;2.596;2022-11-03T15:19:05;24.00;72.30
74809;DHT22;63338;39.544;2.596;2022-11-03T15:21:32;23.90;72.30
74809;DHT22;63338;39.544;2.596;2022-11-03T15:23:58;23.90;72.40
74809;DHT22;63338;39.544;2.596;2022-11-03T15:26:24;24.00;71.80
74809;DHT22;63338;39.544;2.596;2022-11-03T15:28:50;24.00;71.80
74809;DHT22;63338;39.544;2.596;2022-11-03T15:31:16;24.00;71.20
74809;DHT22;63338;39.544;2.596;2022-11-03T15:33:43;24.00;71.10
74809;DHT22;63338;39.544;2.596;2022-11-03T15:36:09;24.00;70.80
74809;DHT22;63338;39.544;2.596;2022-11-03T15:38:35;24.00;71.30
74809;DHT22;63338;39.544;2.596;2022-11-03T15:41:01;23.80;70.70
74809;DHT22;63338;39.544;2.596;2022-11-03T15:43:46;23.90;69.90
74809;DHT22;63338;39.544;2.596;2022-11-03T15:46:14;23.90;69.80
74809;DHT22;63338;39.544;2.596;2022-11-03T15:48:41;23.90;70.00
74809;DHT22;63338;39.544;2.596;2022-11-03T15:51:08;23.90;69.80
74809;DHT22;63338;39.544;2.596;2022-11-03T15:53:34;23.80;69.60
74809;DHT22;63338;39.544;2.596;2022-11-03T15:56:01;23.80;69.80
74809;DHT22;63338;39.544;2.596;2022-11-03T15:58:27;23.80;70.00
74809;DHT22;63338;39.544;2.596;2022-11-03T16:00:57;23.70;69.90
74809;DHT22;63338;39.544;2.596;2022-11-03T16:03:23;23.80;69.80
74809;DHT22;63338;39.544;2.596;2022-11-03T16:05:49;23.70;69.50
74809;DHT22;63338;39.544;2.596;2022-11-03T16:08:15;23.80;69.60
74809;DHT22;63338;39.544;2.596;2022-11-03T16:10:41;23.70;68.90
74809;DHT22;63338;39.544;2.596;2022-11-03T16:13:08;23.80;68.40
74809;DHT22;63338;39.544;2.596;2022-11-03T16:15:33;23.80;68.50
74809;DHT22;63338;39.544;2.596;2022-11-03T16:18:00;23.70;68.50
74809;DHT22;63338;39.544;2.596;2022-11-03T16:20:33;23.70;68.00
74809;DHT22;63338;39.544;2.596;2022-11-03T16:23:00;23.70;67.70
74809;DHT22;63338;39.544;2.596;2022-11-03T16:25:27;23.70;67.00
74809;DHT22;63338;39.544;2.596;2022-11-03T16:27:56;23.70;66.80
74809;DHT22;63338;39.544;2.596;2022-11-03T16:30:25;23.70;67.00
74809;DHT22;63338;39.544;2.596;2022-11-03T16:32:54;23.80;66.50
74809;DHT22;63338;39.544;2.596;2022-11-03T16:35:20;23.70;67.00
74809;DHT22;63338;39.544;2.596;2022-11-03T16:37:47;23.70;65.90
74809;DHT22;63338;39.544;2.596;2022-11-03T16:40:14;23.70;66.60
74809;DHT22;63338;39.544;2.596;2022-11-03T16:42:40;23.70;66.00
74809;DHT22;63338;39.544;2.596;2022-11-03T16:45:14;23.60;66.20
74809;DHT22;63338;39.544;2.596;2022-11-03T16:47:41;23.70;66.20
74809;DHT22;63338;39.544;2.596;2022-11-03T16:50:07;23.80;66.20
74809;DHT22;63338;39.544;2.596;2022-11-03T16:52:34;23.80;66.30
74809;DHT22;63338;39.544;2.596;2022-11-03T16:55:00;23.80;66.60
74809;DHT22;63338;39.544;2.596;2022-11-03T16:57:26;23.60;67.00
74809;DHT22;63338;39.544;2.596;2022-11-03T16:59:52;23.70;66.40
74809;DHT22;63338;39.544;2.596;2022-11-03T17:02:18;23.70;66.30
74809;DHT22;63338;39.544;2.596;2022-11-03T17:04:44;23.70;66.40
74809;DHT22;63338;39.544;2.596;2022-11-03T17:07:10;23.70;66.30
74809;DHT22;63338;39.544;2.596;2022-11-03T17:09:36;23.70;66.20
74809;DHT22;63338;39.544;2.596;2022-11-03T17:12:02;23.60;66.30
74809;DHT22;63338;39.544;2.596;2022-11-03T17:14:28;23.70;66.60